sensor_id;sensor_type;location;lat;lon;timestamp;pressure;altitude;pressure_sealevel;temperature;humidity
62849;BME280;48941;49.516;8.286;2023-04-27T00:01:47;100568.28;;;7.05;67.17
62849;BME280;48941;49.516;8.286;2023-04-27T00:04:15;100570.06;;;7.04;67.02
62849;BME280;48941;49.516;8.286;2023-04-27T00:06:43;100568.19;;;7.06;67.15
62849;BME280;48941;49.516;8.286;2023-04-27T00:09:11;100568.78;;;6.97;67.34
62849;BME280;48941;49.516;8.286;2023-04-27T00:11:39;100568.50;;;6.87;67.82
62849;BME280;48941;49.516;8.286;2023-04-27T00:14:07;100566.09;;;6.83;67.91
62849;BME280;48941;49.516;8.286;2023-04-27T00:16:35;100566.41;;;6.78;68.33
62849;BME280;48941;49.516;8.286;2023-04-27T00:19:04;100572.84;;;6.74;68.52
62849;BME280;48941;49.516;8.286;2023-04-27T00:21:32;100569.44;;;6.72;68.65
62849;BME280;48941;49.516;8.286;2023-04-27T00:24:00;100565.81;;;6.73;68.88
62849;BME280;48941;49.516;8.286;2023-04-27T00:26:27;100565.94;;;6.71;68.88
62849;BME280;48941;49.516;8.286;2023-04-27T00:28:55;100566.19;;;6.67;69.08
62849;BME280;48941;49.516;8.286;2023-04-27T00:31:23;100562.72;;;6.66;69.11
62849;BME280;48941;49.516;8.286;2023-04-27T00:33:51;100564.69;;;6.63;69.18
62849;BME280;48941;49.516;8.286;2023-04-27T00:36:20;100559.84;;;6.55;69.76
62849;BME280;48941;49.516;8.286;2023-04-27T00:38:48;100560.53;;;6.58;69.38
62849;BME280;48941;49.516;8.286;2023-04-27T00:41:15;100564.88;;;6.60;69.80
62849;BME280;48941;49.516;8.286;2023-04-27T00:43:44;100565.56;;;6.63;69.34
62849;BME280;48941;49.516;8.286;2023-04-27T00:46:13;100562.16;;;6.61;68.98
62849;BME280;48941;49.516;8.286;2023-04-27T00:48:42;100567.53;;;6.60;68.71
62849;BME280;48941;49.516;8.286;2023-04-27T00:51:10;100573.28;;;6.52;68.19
62849;BME280;48941;49.516;8.286;2023-04-27T00:53:40;100567.41;;;6.47;68.39
62849;BME280;48941;49.516;8.286;2023-04-27T00:56:08;100567.53;;;6.45;68.53
62849;BME280;48941;49.516;8.286;2023-04-27T00:58:36;100571.09;;;6.44;68.36
62849;BME280;48941;49.516;8.286;2023-04-27T01:01:04;100578.28;;;6.42;68.32
62849;BME280;48941;49.516;8.286;2023-04-27T01:03:32;100574.94;;;6.38;68.29
62849;BME280;48941;49.516;8.286;2023-04-27T01:06:00;100575.03;;;6.37;68.58
62849;BME280;48941;49.516;8.286;2023-04-27T01:08:28;100574.19;;;6.36;67.96
62849;BME280;48941;49.516;8.286;2023-04-27T01:10:57;100568.06;;;6.36;68.41
62849;BME280;48941;49.516;8.286;2023-04-27T01:13:25;100569.09;;;6.33;68.31
62849;BME280;48941;49.516;8.286;2023-04-27T01:15:52;100570.31;;;6.28;68.06
62849;BME280;48941;49.516;8.286;2023-04-27T01:18:20;100565.19;;;6.25;68.52
62849;BME280;48941;49.516;8.286;2023-04-27T01:20:49;100570.69;;;6.22;68.80
62849;BME280;48941;49.516;8.286;2023-04-27T01:23:18;100576.13;;;6.18;68.65
62849;BME280;48941;49.516;8.286;2023-04-27T01:25:46;100579.06;;;6.14;68.96
62849;BME280;48941;49.516;8.286;2023-04-27T01:28:14;100576.28;;;6.01;69.62
62849;BME280;48941;49.516;8.286;2023-04-27T01:30:41;100578.06;;;6.01;69.35
62849;BME280;48941;49.516;8.286;2023-04-27T01:33:09;100577.81;;;6.05;69.14
62849;BME280;48941;49.516;8.286;2023-04-27T01:35:37;100576.94;;;6.05;69.48
62849;BME280;48941;49.516;8.286;2023-04-27T01:38:05;100576.78;;;6.08;69.48
62849;BME280;48941;49.516;8.286;2023-04-27T01:40:34;100581.22;;;6.07;69.65
62849;BME280;48941;49.516;8.286;2023-04-27T01:43:01;100577.81;;;6.05;69.54
62849;BME280;48941;49.516;8.286;2023-04-27T01:45:29;100571.00;;;6.01;69.57
62849;BME280;48941;49.516;8.286;2023-04-27T01:47:57;100567.50;;;6.01;69.82
62849;BME280;48941;49.516;8.286;2023-04-27T01:50:25;100565.97;;;5.96;69.95
62849;BME280;48941;49.516;8.286;2023-04-27T01:52:53;100575.63;;;5.97;69.95
62849;BME280;48941;49.516;8.286;2023-04-27T01:55:21;100573.06;;;5.96;70.15
62849;BME280;48941;49.516;8.286;2023-04-27T01:57:50;100574.91;;;5.94;70.40
62849;BME280;48941;49.516;8.286;2023-04-27T02:00:18;100572.41;;;5.91;70.62
62849;BME280;48941;49.516;8.286;2023-04-27T02:02:46;100577.06;;;5.87;70.77
62849;BME280;48941;49.516;8.286;2023-04-27T02:05:16;100583.53;;;5.82;70.96
62849;BME280;48941;49.516;8.286;2023-04-27T02:07:44;100578.50;;;5.77;71.22
62849;BME280;48941;49.516;8.286;2023-04-27T02:10:12;100583.03;;;5.75;71.25
62849;BME280;48941;49.516;8.286;2023-04-27T02:12:40;100582.19;;;5.74;71.68
62849;BME280;48941;49.516;8.286;2023-04-27T02:15:09;100575.84;;;5.77;71.42
62849;BME280;48941;49.516;8.286;2023-04-27T02:17:37;100576.72;;;5.77;71.45
62849;BME280;48941;49.516;8.286;2023-04-27T02:20:06;100581.81;;;5.81;71.17
62849;BME280;48941;49.516;8.286;2023-04-27T02:22:34;100585.22;;;5.83;71.51
62849;BME280;48941;49.516;8.286;2023-04-27T02:25:02;100596.84;;;5.80;71.01
62849;BME280;48941;49.516;8.286;2023-04-27T02:27:30;100590.94;;;5.75;70.77
62849;BME280;48941;49.516;8.286;2023-04-27T02:30:03;100588.31;;;5.75;71.06
62849;BME280;48941;49.516;8.286;2023-04-27T02:32:32;100587.53;;;5.73;70.93
62849;BME280;48941;49.516;8.286;2023-04-27T02:35:00;100597.19;;;5.74;71.08
62849;BME280;48941;49.516;8.286;2023-04-27T02:37:28;100598.03;;;5.74;71.49
62849;BME280;48941;49.516;8.286;2023-04-27T02:39:56;100599.47;;;5.80;71.58
62849;BME280;48941;49.516;8.286;2023-04-27T02:42:24;100604.41;;;5.86;71.53
62849;BME280;48941;49.516;8.286;2023-04-27T02:44:52;100598.44;;;5.83;71.65
62849;BME280;48941;49.516;8.286;2023-04-27T02:47:20;100601.97;;;5.83;71.52
62849;BME280;48941;49.516;8.286;2023-04-27T02:49:50;100601.00;;;5.84;71.68
62849;BME280;48941;49.516;8.286;2023-04-27T02:52:18;100604.50;;;5.85;72.14
62849;BME280;48941;49.516;8.286;2023-04-27T02:54:46;100602.91;;;5.82;72.44
62849;BME280;48941;49.516;8.286;2023-04-27T02:57:14;100604.09;;;5.76;72.94
62849;BME280;48941;49.516;8.286;2023-04-27T02:59:41;100598.03;;;5.74;73.07
62849;BME280;48941;49.516;8.286;2023-04-27T03:02:09;100601.78;;;5.70;73.65
62849;BME280;48941;49.516;8.286;2023-04-27T03:04:37;100599.34;;;5.67;73.83
62849;BME280;48941;49.516;8.286;2023-04-27T03:07:06;100599.41;;;5.66;73.96
62849;BME280;48941;49.516;8.286;2023-04-27T03:09:34;100591.41;;;5.67;74.02
62849;BME280;48941;49.516;8.286;2023-04-27T03:12:02;100597.47;;;5.69;74.05
62849;BME280;48941;49.516;8.286;2023-04-27T03:14:30;100603.41;;;5.73;74.02
62849;BME280;48941;49.516;8.286;2023-04-27T03:16:59;100602.41;;;5.75;73.88
62849;BME280;48941;49.516;8.286;2023-04-27T03:19:27;100598.63;;;5.79;74.18
62849;BME280;48941;49.516;8.286;2023-04-27T03:21:55;100607.25;;;5.83;74.08
62849;BME280;48941;49.516;8.286;2023-04-27T03:24:24;100605.47;;;5.84;74.02
62849;BME280;48941;49.516;8.286;2023-04-27T03:26:52;100607.25;;;5.83;74.14
62849;BME280;48941;49.516;8.286;2023-04-27T03:29:19;100601.84;;;5.85;73.96
62849;BME280;48941;49.516;8.286;2023-04-27T03:31:47;100594.97;;;5.82;74.32
62849;BME280;48941;49.516;8.286;2023-04-27T03:34:15;100591.72;;;5.77;74.55
62849;BME280;48941;49.516;8.286;2023-04-27T03:36:43;100593.44;;;5.78;74.95
62849;BME280;48941;49.516;8.286;2023-04-27T03:39:11;100596.16;;;5.76;75.10
62849;BME280;48941;49.516;8.286;2023-04-27T03:41:40;100592.75;;;5.74;75.63
62849;BME280;48941;49.516;8.286;2023-04-27T03:44:08;100591.72;;;5.77;75.69
62849;BME280;48941;49.516;8.286;2023-04-27T03:46:36;100587.13;;;5.81;75.71
62849;BME280;48941;49.516;8.286;2023-04-27T03:49:04;100589.31;;;5.88;75.34
62849;BME280;48941;49.516;8.286;2023-04-27T03:51:32;100585.63;;;5.91;76.03
62849;BME280;48941;49.516;8.286;2023-04-27T03:54:00;100590.59;;;5.97;75.95
62849;BME280;48941;49.516;8.286;2023-04-27T03:56:28;100589.50;;;6.01;75.74
62849;BME280;48941;49.516;8.286;2023-04-27T03:58:57;100587.44;;;6.06;75.68
62849;BME280;48941;49.516;8.286;2023-04-27T04:01:25;100595.28;;;6.08;75.58
62849;BME280;48941;49.516;8.286;2023-04-27T04:03:53;100597.84;;;6.09;75.23
62849;BME280;48941;49.516;8.286;2023-04-27T04:06:21;100602.94;;;6.12;75.36
62849;BME280;48941;49.516;8.286;2023-04-27T04:08:48;100600.22;;;6.14;75.04
62849;BME280;48941;49.516;8.286;2023-04-27T04:11:16;100596.72;;;6.13;74.99
62849;BME280;48941;49.516;8.286;2023-04-27T04:13:44;100593.22;;;6.13;75.17
62849;BME280;48941;49.516;8.286;2023-04-27T04:16:14;100593.13;;;6.14;75.28
62849;BME280;48941;49.516;8.286;2023-04-27T04:18:41;100593.88;;;6.16;74.84
62849;BME280;48941;49.516;8.286;2023-04-27T04:21:09;100598.16;;;6.19;75.17
62849;BME280;48941;49.516;8.286;2023-04-27T04:23:37;100596.38;;;6.20;75.21
62849;BME280;48941;49.516;8.286;2023-04-27T04:26:06;100602.22;;;6.25;75.00
62849;BME280;48941;49.516;8.286;2023-04-27T04:28:35;100607.34;;;6.28;74.89
62849;BME280;48941;49.516;8.286;2023-04-27T04:31:03;100604.69;;;6.28;75.12
62849;BME280;48941;49.516;8.286;2023-04-27T04:33:33;100610.75;;;6.30;74.75
62849;BME280;48941;49.516;8.286;2023-04-27T04:36:02;100613.41;;;6.30;74.76
62849;BME280;48941;49.516;8.286;2023-04-27T04:38:30;100615.56;;;6.23;74.65
62849;BME280;48941;49.516;8.286;2023-04-27T04:40:59;100616.50;;;6.22;74.66
62849;BME280;48941;49.516;8.286;2023-04-27T04:43:27;100610.16;;;6.25;74.81
62849;BME280;48941;49.516;8.286;2023-04-27T04:45:54;100605.63;;;6.27;74.92
62849;BME280;48941;49.516;8.286;2023-04-27T04:48:22;100601.31;;;6.26;75.38
62849;BME280;48941;49.516;8.286;2023-04-27T04:50:52;100595.06;;;6.27;75.64
62849;BME280;48941;49.516;8.286;2023-04-27T04:53:20;100597.53;;;6.30;75.33
62849;BME280;48941;49.516;8.286;2023-04-27T04:55:48;100598.22;;;6.33;75.45
62849;BME280;48941;49.516;8.286;2023-04-27T04:58:15;100602.38;;;6.37;75.66
62849;BME280;48941;49.516;8.286;2023-04-27T05:00:43;100610.09;;;6.41;75.14
62849;BME280;48941;49.516;8.286;2023-04-27T05:03:11;100616.06;;;6.44;75.03
62849;BME280;48941;49.516;8.286;2023-04-27T05:05:39;100613.06;;;6.50;75.24
62849;BME280;48941;49.516;8.286;2023-04-27T05:08:08;100615.16;;;6.60;75.03
62849;BME280;48941;49.516;8.286;2023-04-27T05:10:36;100605.91;;;6.67;74.26
62849;BME280;48941;49.516;8.286;2023-04-27T05:13:03;100605.66;;;6.71;74.12
62849;BME280;48941;49.516;8.286;2023-04-27T05:15:32;100620.94;;;6.81;74.16
62849;BME280;48941;49.516;8.286;2023-04-27T05:18:00;100620.69;;;6.85;73.91
62849;BME280;48941;49.516;8.286;2023-04-27T05:20:28;100620.03;;;6.96;73.91
62849;BME280;48941;49.516;8.286;2023-04-27T05:22:56;100630.16;;;7.04;73.28
62849;BME280;48941;49.516;8.286;2023-04-27T05:25:25;100635.16;;;7.08;72.98
62849;BME280;48941;49.516;8.286;2023-04-27T05:27:53;100628.81;;;7.11;72.61
62849;BME280;48941;49.516;8.286;2023-04-27T05:30:21;100633.75;;;7.17;72.67
62849;BME280;48941;49.516;8.286;2023-04-27T05:32:48;100628.16;;;7.22;71.83
62849;BME280;48941;49.516;8.286;2023-04-27T05:35:16;100635.63;;;7.29;71.24
62849;BME280;48941;49.516;8.286;2023-04-27T05:37:44;100627.47;;;7.32;71.21
62849;BME280;48941;49.516;8.286;2023-04-27T05:40:14;100634.19;;;7.38;70.43
62849;BME280;48941;49.516;8.286;2023-04-27T05:42:44;100638.16;;;7.45;70.09
62849;BME280;48941;49.516;8.286;2023-04-27T05:45:12;100642.25;;;7.51;69.68
62849;BME280;48941;49.516;8.286;2023-04-27T05:47:40;100645.53;;;7.54;69.57
62849;BME280;48941;49.516;8.286;2023-04-27T05:50:09;100645.25;;;7.59;68.75
62849;BME280;48941;49.516;8.286;2023-04-27T05:52:37;100645.78;;;7.64;67.64
62849;BME280;48941;49.516;8.286;2023-04-27T05:55:06;100645.69;;;7.66;67.61
62849;BME280;48941;49.516;8.286;2023-04-27T05:57:34;100652.19;;;7.74;67.79
62849;BME280;48941;49.516;8.286;2023-04-27T06:00:05;100654.00;;;7.74;67.24
62849;BME280;48941;49.516;8.286;2023-04-27T06:02:36;100648.31;;;7.80;66.46
62849;BME280;48941;49.516;8.286;2023-04-27T06:05:05;100654.19;;;7.85;66.73
62849;BME280;48941;49.516;8.286;2023-04-27T06:07:34;100652.19;;;7.89;67.02
62849;BME280;48941;49.516;8.286;2023-04-27T06:10:03;100664.50;;;7.90;66.60
62849;BME280;48941;49.516;8.286;2023-04-27T06:12:31;100657.94;;;7.95;66.65
62849;BME280;48941;49.516;8.286;2023-04-27T06:14:59;100659.13;;;8.04;66.54
62849;BME280;48941;49.516;8.286;2023-04-27T06:17:30;100663.09;;;8.11;65.93
62849;BME280;48941;49.516;8.286;2023-04-27T06:19:58;100661.72;;;8.18;65.16
62849;BME280;48941;49.516;8.286;2023-04-27T06:22:26;100666.53;;;8.26;64.66
62849;BME280;48941;49.516;8.286;2023-04-27T06:24:54;100671.44;;;8.32;64.14
62849;BME280;48941;49.516;8.286;2023-04-27T06:27:22;100673.69;;;8.38;63.89
62849;BME280;48941;49.516;8.286;2023-04-27T06:29:50;100677.84;;;8.43;64.16
62849;BME280;48941;49.516;8.286;2023-04-27T06:32:18;100668.63;;;8.48;64.44
62849;BME280;48941;49.516;8.286;2023-04-27T06:34:48;100685.78;;;8.57;64.81
62849;BME280;48941;49.516;8.286;2023-04-27T06:37:16;100673.75;;;8.64;65.00
62849;BME280;48941;49.516;8.286;2023-04-27T06:39:44;100683.69;;;8.75;63.94
62849;BME280;48941;49.516;8.286;2023-04-27T06:42:13;100674.22;;;8.84;63.74
62849;BME280;48941;49.516;8.286;2023-04-27T06:44:40;100687.09;;;8.90;63.85
62849;BME280;48941;49.516;8.286;2023-04-27T06:47:08;100684.09;;;8.94;63.04
62849;BME280;48941;49.516;8.286;2023-04-27T06:49:36;100686.47;;;8.99;63.27
62849;BME280;48941;49.516;8.286;2023-04-27T06:52:06;100688.69;;;9.05;63.21
62849;BME280;48941;49.516;8.286;2023-04-27T06:54:33;100686.44;;;9.12;63.22
62849;BME280;48941;49.516;8.286;2023-04-27T06:57:01;100677.84;;;9.21;63.48
62849;BME280;48941;49.516;8.286;2023-04-27T06:59:29;100682.94;;;9.24;62.83
62849;BME280;48941;49.516;8.286;2023-04-27T07:01:57;100686.66;;;9.22;62.94
62849;BME280;48941;49.516;8.286;2023-04-27T07:04:26;100692.63;;;9.25;63.31
62849;BME280;48941;49.516;8.286;2023-04-27T07:06:54;100683.16;;;9.34;63.32
62849;BME280;48941;49.516;8.286;2023-04-27T07:09:24;100689.41;;;9.46;63.17
62849;BME280;48941;49.516;8.286;2023-04-27T07:11:53;100691.53;;;9.53;63.37
62849;BME280;48941;49.516;8.286;2023-04-27T07:14:22;100692.69;;;9.62;63.05
62849;BME280;48941;49.516;8.286;2023-04-27T07:16:50;100696.72;;;9.68;62.90
62849;BME280;48941;49.516;8.286;2023-04-27T07:19:18;100698.19;;;9.72;62.98
62849;BME280;48941;49.516;8.286;2023-04-27T07:21:46;100695.63;;;9.83;62.39
62849;BME280;48941;49.516;8.286;2023-04-27T07:24:13;100700.78;;;9.97;61.33
62849;BME280;48941;49.516;8.286;2023-04-27T07:26:43;100696.47;;;10.08;60.85
62849;BME280;48941;49.516;8.286;2023-04-27T07:29:11;100699.97;;;10.21;59.95
62849;BME280;48941;49.516;8.286;2023-04-27T07:31:52;100702.06;;;10.29;57.77
62849;BME280;48941;49.516;8.286;2023-04-27T07:34:21;100701.75;;;10.33;57.54
62849;BME280;48941;49.516;8.286;2023-04-27T07:36:50;100700.72;;;10.47;57.28
62849;BME280;48941;49.516;8.286;2023-04-27T07:39:19;100695.91;;;10.52;57.06
62849;BME280;48941;49.516;8.286;2023-04-27T07:41:49;100686.97;;;10.65;56.75
62849;BME280;48941;49.516;8.286;2023-04-27T07:44:17;100685.31;;;10.75;56.42
62849;BME280;48941;49.516;8.286;2023-04-27T07:46:46;100689.00;;;10.96;56.53
62849;BME280;48941;49.516;8.286;2023-04-27T07:49:14;100687.31;;;11.18;56.40
62849;BME280;48941;49.516;8.286;2023-04-27T07:51:42;100676.06;;;11.37;55.54
62849;BME280;48941;49.516;8.286;2023-04-27T07:54:10;100674.88;;;11.52;54.89
62849;BME280;48941;49.516;8.286;2023-04-27T07:56:40;100675.06;;;11.72;53.65
62849;BME280;48941;49.516;8.286;2023-04-27T07:59:09;100670.47;;;11.97;53.18
62849;BME280;48941;49.516;8.286;2023-04-27T08:01:38;100670.78;;;12.03;52.73
62849;BME280;48941;49.516;8.286;2023-04-27T08:04:06;100670.63;;;12.16;51.80
62849;BME280;48941;49.516;8.286;2023-04-27T08:06:34;100668.41;;;12.32;50.67
62849;BME280;48941;49.516;8.286;2023-04-27T08:09:03;100668.50;;;12.42;50.72
62849;BME280;48941;49.516;8.286;2023-04-27T08:11:31;100677.53;;;12.51;49.39
62849;BME280;48941;49.516;8.286;2023-04-27T08:13:59;100665.50;;;12.57;48.43
62849;BME280;48941;49.516;8.286;2023-04-27T08:16:28;100676.13;;;12.68;48.00
62849;BME280;48941;49.516;8.286;2023-04-27T08:18:56;100681.28;;;12.81;46.52
62849;BME280;48941;49.516;8.286;2023-04-27T08:21:26;100673.88;;;12.94;45.24
62849;BME280;48941;49.516;8.286;2023-04-27T08:23:55;100673.19;;;13.13;45.37
62849;BME280;48941;49.516;8.286;2023-04-27T08:26:23;100689.59;;;13.29;45.76
62849;BME280;48941;49.516;8.286;2023-04-27T08:28:51;100679.53;;;13.43;45.15
62849;BME280;48941;49.516;8.286;2023-04-27T08:31:19;100686.78;;;13.52;45.02
62849;BME280;48941;49.516;8.286;2023-04-27T08:33:49;100685.28;;;13.69;44.49
62849;BME280;48941;49.516;8.286;2023-04-27T08:36:17;100684.75;;;13.85;43.72
62849;BME280;48941;49.516;8.286;2023-04-27T08:38:44;100680.72;;;14.00;43.72
62849;BME280;48941;49.516;8.286;2023-04-27T08:41:17;100673.81;;;14.07;43.25
62849;BME280;48941;49.516;8.286;2023-04-27T08:43:48;100674.09;;;14.14;43.23
62849;BME280;48941;49.516;8.286;2023-04-27T08:46:20;100677.50;;;14.26;42.24
62849;BME280;48941;49.516;8.286;2023-04-27T08:48:50;100676.53;;;14.46;41.95
62849;BME280;48941;49.516;8.286;2023-04-27T08:51:20;100674.00;;;14.64;41.75
62849;BME280;48941;49.516;8.286;2023-04-27T08:53:49;100676.94;;;14.71;41.15
62849;BME280;48941;49.516;8.286;2023-04-27T08:56:18;100676.66;;;14.84;41.05
62849;BME280;48941;49.516;8.286;2023-04-27T08:58:46;100679.47;;;14.92;40.67
62849;BME280;48941;49.516;8.286;2023-04-27T09:01:14;100683.25;;;14.99;41.19
62849;BME280;48941;49.516;8.286;2023-04-27T09:03:42;100675.50;;;15.06;41.56
62849;BME280;48941;49.516;8.286;2023-04-27T09:06:14;100680.66;;;15.17;40.51
62849;BME280;48941;49.516;8.286;2023-04-27T09:08:43;100681.34;;;15.29;39.13
62849;BME280;48941;49.516;8.286;2023-04-27T09:11:12;100677.22;;;15.34;39.59
62849;BME280;48941;49.516;8.286;2023-04-27T09:13:41;100676.03;;;15.47;39.04
62849;BME280;48941;49.516;8.286;2023-04-27T09:16:12;100672.03;;;15.61;37.59
62849;BME280;48941;49.516;8.286;2023-04-27T09:18:42;100664.53;;;15.64;36.76
62849;BME280;48941;49.516;8.286;2023-04-27T09:21:10;100668.19;;;15.63;37.73
62849;BME280;48941;49.516;8.286;2023-04-27T09:23:39;100664.22;;;15.67;37.50
62849;BME280;48941;49.516;8.286;2023-04-27T09:26:07;100662.16;;;15.89;36.43
62849;BME280;48941;49.516;8.286;2023-04-27T09:28:38;100651.06;;;16.02;36.11
62849;BME280;48941;49.516;8.286;2023-04-27T09:31:06;100656.25;;;16.21;36.28
62849;BME280;48941;49.516;8.286;2023-04-27T09:33:36;100649.06;;;16.40;36.04
62849;BME280;48941;49.516;8.286;2023-04-27T09:36:05;100649.88;;;16.58;36.15
62849;BME280;48941;49.516;8.286;2023-04-27T09:38:33;100652.84;;;16.73;36.43
62849;BME280;48941;49.516;8.286;2023-04-27T09:41:02;100651.78;;;16.84;36.34
62849;BME280;48941;49.516;8.286;2023-04-27T09:43:30;100656.94;;;17.03;36.56
62849;BME280;48941;49.516;8.286;2023-04-27T09:45:58;100650.19;;;17.25;36.16
62849;BME280;48941;49.516;8.286;2023-04-27T09:48:27;100644.94;;;17.50;36.14
62849;BME280;48941;49.516;8.286;2023-04-27T09:50:55;100648.19;;;17.62;35.39
62849;BME280;48941;49.516;8.286;2023-04-27T09:53:28;100643.34;;;17.74;35.16
62849;BME280;48941;49.516;8.286;2023-04-27T09:56:08;100633.84;;;17.96;34.95
62849;BME280;48941;49.516;8.286;2023-04-27T09:58:44;100635.88;;;18.02;34.51
62849;BME280;48941;49.516;8.286;2023-04-27T10:01:22;100636.19;;;18.07;34.48
62849;BME280;48941;49.516;8.286;2023-04-27T10:04:01;100630.66;;;18.17;34.65
62849;BME280;48941;49.516;8.286;2023-04-27T10:06:58;100636.25;;;18.23;34.71
62849;BME280;48941;49.516;8.286;2023-04-27T10:09:27;100635.41;;;18.47;33.54
62849;BME280;48941;49.516;8.286;2023-04-27T10:12:14;100632.53;;;18.57;33.98
62849;BME280;48941;49.516;8.286;2023-04-27T10:14:52;100632.84;;;18.62;34.10
62849;BME280;48941;49.516;8.286;2023-04-27T10:17:24;100625.28;;;18.58;34.09
62849;BME280;48941;49.516;8.286;2023-04-27T10:19:56;100632.69;;;18.72;34.14
62849;BME280;48941;49.516;8.286;2023-04-27T10:22:36;100638.06;;;18.72;34.01
62849;BME280;48941;49.516;8.286;2023-04-27T10:25:19;100628.47;;;18.69;34.13
62849;BME280;48941;49.516;8.286;2023-04-27T10:27:49;100632.19;;;18.85;33.66
62849;BME280;48941;49.516;8.286;2023-04-27T10:30:19;100629.47;;;18.85;34.50
62849;BME280;48941;49.516;8.286;2023-04-27T10:32:51;100631.66;;;18.98;33.91
62849;BME280;48941;49.516;8.286;2023-04-27T10:35:20;100623.56;;;19.06;33.37
62849;BME280;48941;49.516;8.286;2023-04-27T10:37:48;100625.88;;;19.09;32.63
62849;BME280;48941;49.516;8.286;2023-04-27T10:40:17;100624.06;;;19.01;32.67
62849;BME280;48941;49.516;8.286;2023-04-27T10:42:46;100623.56;;;19.06;32.72
62849;BME280;48941;49.516;8.286;2023-04-27T10:45:27;100630.44;;;19.08;32.45
62849;BME280;48941;49.516;8.286;2023-04-27T10:47:58;100628.91;;;19.14;32.15
62849;BME280;48941;49.516;8.286;2023-04-27T10:50:27;100613.06;;;19.11;32.87
62849;BME280;48941;49.516;8.286;2023-04-27T10:52:58;100623.56;;;19.06;32.78
62849;BME280;48941;49.516;8.286;2023-04-27T10:55:28;100624.25;;;19.00;32.61
62849;BME280;48941;49.516;8.286;2023-04-27T10:57:57;100612.38;;;19.09;32.28
62849;BME280;48941;49.516;8.286;2023-04-27T11:00:29;100602.72;;;19.23;31.96
62849;BME280;48941;49.516;8.286;2023-04-27T11:03:14;100602.41;;;19.26;31.37
62849;BME280;48941;49.516;8.286;2023-04-27T11:05:44;100609.59;;;19.42;30.98
62849;BME280;48941;49.516;8.286;2023-04-27T11:08:14;100600.56;;;19.58;30.84
62849;BME280;48941;49.516;8.286;2023-04-27T11:10:44;100597.75;;;19.51;29.86
62849;BME280;48941;49.516;8.286;2023-04-27T11:13:14;100597.19;;;19.56;30.39
62849;BME280;48941;49.516;8.286;2023-04-27T11:15:48;100591.72;;;19.72;30.39
62849;BME280;48941;49.516;8.286;2023-04-27T11:18:18;100582.19;;;19.84;29.69
62849;BME280;48941;49.516;8.286;2023-04-27T11:20:48;100587.47;;;20.01;29.54
62849;BME280;48941;49.516;8.286;2023-04-27T11:23:24;100587.91;;;20.13;30.20
62849;BME280;48941;49.516;8.286;2023-04-27T11:25:52;100589.44;;;20.15;29.34
62849;BME280;48941;49.516;8.286;2023-04-27T11:28:21;100596.44;;;20.24;28.97
62849;BME280;48941;49.516;8.286;2023-04-27T11:30:58;100588.22;;;20.18;29.03
62849;BME280;48941;49.516;8.286;2023-04-27T11:33:26;100578.72;;;19.99;29.47
62849;BME280;48941;49.516;8.286;2023-04-27T11:35:54;100574.63;;;19.80;28.73
62849;BME280;48941;49.516;8.286;2023-04-27T11:38:24;100579.88;;;19.81;28.76
62849;BME280;48941;49.516;8.286;2023-04-27T11:40:59;100569.50;;;19.85;28.68
62849;BME280;48941;49.516;8.286;2023-04-27T11:43:28;100570.38;;;20.08;28.47
62849;BME280;48941;49.516;8.286;2023-04-27T11:46:01;100571.38;;;20.30;28.84
62849;BME280;48941;49.516;8.286;2023-04-27T11:48:29;100555.69;;;20.26;28.87
62849;BME280;48941;49.516;8.286;2023-04-27T11:50:57;100556.91;;;20.23;29.01
62849;BME280;48941;49.516;8.286;2023-04-27T11:53:31;100556.59;;;20.18;29.08
62849;BME280;48941;49.516;8.286;2023-04-27T11:55:59;100558.00;;;20.14;29.49
62849;BME280;48941;49.516;8.286;2023-04-27T11:58:28;100556.66;;;19.87;29.39
62849;BME280;48941;49.516;8.286;2023-04-27T12:00:57;100550.25;;;20.11;29.43
62849;BME280;48941;49.516;8.286;2023-04-27T12:03:26;100543.00;;;20.26;29.46
62849;BME280;48941;49.516;8.286;2023-04-27T12:05:56;100538.47;;;20.42;29.62
62849;BME280;48941;49.516;8.286;2023-04-27T12:08:44;100543.44;;;20.53;29.83
62849;BME280;48941;49.516;8.286;2023-04-27T12:11:12;100535.75;;;20.65;29.13
62849;BME280;48941;49.516;8.286;2023-04-27T12:13:40;100534.63;;;20.59;28.84
62849;BME280;48941;49.516;8.286;2023-04-27T12:16:09;100536.41;;;20.67;28.60
62849;BME280;48941;49.516;8.286;2023-04-27T12:18:37;100536.31;;;20.75;28.58
62849;BME280;48941;49.516;8.286;2023-04-27T12:21:05;100530.44;;;20.72;28.64
62849;BME280;48941;49.516;8.286;2023-04-27T12:23:34;100529.47;;;20.64;28.42
62849;BME280;48941;49.516;8.286;2023-04-27T12:26:02;100525.16;;;20.55;28.48
62849;BME280;48941;49.516;8.286;2023-04-27T12:28:30;100530.03;;;20.60;28.52
62849;BME280;48941;49.516;8.286;2023-04-27T12:30:58;100519.03;;;20.61;29.43
62849;BME280;48941;49.516;8.286;2023-04-27T12:33:27;100522.06;;;20.58;28.89
62849;BME280;48941;49.516;8.286;2023-04-27T12:35:55;100515.69;;;20.59;28.46
62849;BME280;48941;49.516;8.286;2023-04-27T12:38:23;100530.53;;;20.63;28.45
62849;BME280;48941;49.516;8.286;2023-04-27T12:40:51;100524.03;;;20.49;28.70
62849;BME280;48941;49.516;8.286;2023-04-27T12:43:19;100523.59;;;20.23;28.89
62849;BME280;48941;49.516;8.286;2023-04-27T12:45:46;100518.00;;;20.09;29.17
62849;BME280;48941;49.516;8.286;2023-04-27T12:48:14;100516.34;;;20.23;28.87
62849;BME280;48941;49.516;8.286;2023-04-27T12:50:44;100519.53;;;20.27;29.02
62849;BME280;48941;49.516;8.286;2023-04-27T12:53:12;100516.13;;;20.25;29.36
62849;BME280;48941;49.516;8.286;2023-04-27T12:55:40;100513.47;;;20.40;29.31
62849;BME280;48941;49.516;8.286;2023-04-27T12:58:08;100501.91;;;20.46;29.38
62849;BME280;48941;49.516;8.286;2023-04-27T13:00:35;100504.06;;;20.36;28.87
62849;BME280;48941;49.516;8.286;2023-04-27T13:03:04;100508.41;;;20.37;29.17
62849;BME280;48941;49.516;8.286;2023-04-27T13:05:33;100503.31;;;20.42;29.34